createdAt,value
2018-12-09T00:01:15.827Z,98565.92
2018-12-09T00:03:43.363Z,98566.30
2018-12-09T00:06:10.871Z,98566.98
2018-12-09T00:08:38.355Z,98566.67
2018-12-09T00:11:05.906Z,98553.20
2018-12-09T00:13:33.461Z,98568.05
2018-12-09T00:16:00.940Z,98558.95
2018-12-09T00:18:28.586Z,98568.45
2018-12-09T00:20:56.061Z,98560.78
2018-12-09T00:23:23.591Z,98569.32
2018-12-09T00:25:51.205Z,98554.50
2018-12-09T00:28:18.733Z,98561.48
2018-12-09T00:30:46.218Z,98576.31
2018-12-09T00:33:13.773Z,98573.52
2018-12-09T00:35:41.317Z,98573.09
2018-12-09T00:38:08.847Z,98570.39
2018-12-09T00:40:36.362Z,98575.09
2018-12-09T00:43:03.851Z,98581.13
2018-12-09T00:45:31.404Z,98580.70
2018-12-09T00:47:58.888Z,98580.36
2018-12-09T00:50:26.405Z,98579.54
2018-12-09T00:52:53.962Z,98587.52
2018-12-09T00:55:21.471Z,98582.41
2018-12-09T00:57:49.081Z,98590.39
2018-12-09T01:00:16.567Z,98582.30
2018-12-09T01:02:44.067Z,98581.05
2018-12-09T01:05:11.577Z,98577.34
2018-12-09T01:07:39.135Z,98584.97
2018-12-09T01:10:06.729Z,98597.56
2018-12-09T01:12:34.213Z,98593.84
2018-12-09T01:15:01.702Z,98594.77
2018-12-09T01:17:29.209Z,98602.86
2018-12-09T01:19:56.685Z,98605.09
2018-12-09T01:22:24.240Z,98609.56
2018-12-09T01:24:51.726Z,98607.09
2018-12-09T01:27:19.259Z,98608.78
2018-12-09T01:29:47.374Z,98611.06
2018-12-09T01:32:14.973Z,98624.41
2018-12-09T01:34:42.474Z,98618.81
2018-12-09T01:37:09.993Z,98617.53
2018-12-09T01:39:37.496Z,98615.52
2018-12-09T01:42:05.119Z,98617.16
2018-12-09T01:44:32.628Z,98618.61
2018-12-09T01:47:00.175Z,98633.46
2018-12-09T01:49:27.689Z,98631.76
2018-12-09T01:51:55.181Z,98632.22
2018-12-09T01:54:22.815Z,98621.31
2018-12-09T01:56:50.314Z,98636.45
2018-12-09T01:59:18.197Z,98626.59
2018-12-09T02:01:45.734Z,98641.54
2018-12-09T02:04:13.245Z,98640.06
2018-12-09T02:06:40.801Z,98636.20
2018-12-09T02:09:08.347Z,98640.61
2018-12-09T02:11:35.872Z,98642.89
2018-12-09T02:14:03.394Z,98640.31
2018-12-09T02:16:31.271Z,98647.61
2018-12-09T02:19:14.223Z,98640.78
2018-12-09T02:21:42.016Z,98638.63
2018-12-09T02:24:09.629Z,98635.39
2018-12-09T02:26:37.225Z,98642.33
2018-12-09T02:29:04.717Z,98643.27
2018-12-09T02:31:32.278Z,98646.61
2018-12-09T02:33:59.784Z,98645.73
2018-12-09T02:36:27.310Z,98638.98
2018-12-09T02:38:54.875Z,98635.39
2018-12-09T02:41:22.567Z,98624.02
2018-12-09T02:43:50.060Z,98633.46
2018-12-09T02:46:17.557Z,98646.38
2018-12-09T02:48:45.066Z,98653.13
2018-12-09T02:51:12.791Z,98650.66
2018-12-09T02:53:40.305Z,98658.18
2018-12-09T02:56:07.794Z,98659.98
2018-12-09T02:58:35.477Z,98644.78
2018-12-09T03:01:03.303Z,98654.36
2018-12-09T03:03:30.964Z,98662.16
2018-12-09T03:05:58.671Z,98666.20
2018-12-09T03:08:26.161Z,98651.83
2018-12-09T03:10:53.661Z,98658.35
2018-12-09T03:13:21.646Z,98651.73
2018-12-09T03:15:50.218Z,98657.13
2018-12-09T03:18:17.793Z,98666.81
2018-12-09T03:20:45.294Z,98726.07
2018-12-09T03:23:12.791Z,98719.30
2018-12-09T03:25:40.322Z,98716.63
2018-12-09T03:28:07.878Z,98713.59
2018-12-09T03:30:35.549Z,98707.98
2018-12-09T03:33:03.153Z,98695.53
2018-12-09T03:35:30.754Z,98695.41
2018-12-09T03:37:58.384Z,98697.00
2018-12-09T03:40:25.859Z,98704.50
2018-12-09T03:42:53.347Z,98723.70
2018-12-09T03:45:20.876Z,98722.59
2018-12-09T03:47:48.419Z,98728.78
2018-12-09T03:50:16.092Z,98719.09
2018-12-09T03:52:43.583Z,98723.61
2018-12-09T03:55:11.072Z,98721.36
2018-12-09T03:57:38.585Z,98722.81
2018-12-09T04:00:06.254Z,98738.52
2018-12-09T04:02:33.767Z,98742.13
2018-12-09T04:05:01.260Z,98756.14
2018-12-09T04:07:28.812Z,98754.36
2018-12-09T04:09:56.319Z,98733.69
2018-12-09T04:12:23.818Z,98742.67
2018-12-09T04:14:51.372Z,98753.11
2018-12-09T04:17:18.899Z,98744.56
2018-12-09T04:19:46.669Z,98754.78
2018-12-09T04:22:14.186Z,98741.65
2018-12-09T04:24:41.793Z,98735.48
2018-12-09T04:27:09.916Z,98740.41
2018-12-09T04:29:37.417Z,98748.59
2018-12-09T04:32:04.946Z,98761.28
2018-12-09T04:34:32.447Z,98762.19
2018-12-09T04:37:00.035Z,98754.22
2018-12-09T04:39:27.577Z,98755.12
2018-12-09T04:41:55.128Z,98746.34
2018-12-09T04:44:22.657Z,98766.67
2018-12-09T04:46:50.205Z,98779.91
2018-12-09T04:49:17.846Z,98771.70
2018-12-09T04:51:52.811Z,98776.75
2018-12-09T04:54:20.468Z,98780.89
2018-12-09T04:56:47.997Z,98782.47
2018-12-09T04:59:16.895Z,98787.86
2018-12-09T05:01:45.071Z,98791.90
2018-12-09T05:04:12.566Z,98786.75
2018-12-09T05:06:40.116Z,98784.50
2018-12-09T05:09:07.672Z,98782.58
2018-12-09T05:11:35.277Z,98794.16
2018-12-09T05:14:03.254Z,98795.27
2018-12-09T05:16:30.892Z,98796.61
2018-12-09T05:18:58.431Z,98808.16
2018-12-09T05:21:26.018Z,98803.78
2018-12-09T05:23:53.556Z,98803.48
2018-12-09T05:26:21.464Z,98806.27
2018-12-09T05:28:48.986Z,98810.52
2018-12-09T05:31:16.506Z,98824.22
2018-12-09T05:33:44.102Z,98822.09
2018-12-09T05:36:11.639Z,98828.27
2018-12-09T05:38:39.684Z,98822.73
2018-12-09T05:41:07.204Z,98829.38
2018-12-09T05:43:34.862Z,98829.70
2018-12-09T05:46:02.375Z,98823.98
2018-12-09T05:48:29.929Z,98824.42
2018-12-09T05:50:57.467Z,98825.56
2018-12-09T05:53:25.023Z,98827.35
2018-12-09T05:55:52.587Z,98833.84
2018-12-09T05:58:22.134Z,98838.09
2018-12-09T06:00:49.665Z,98844.38
2018-12-09T06:03:17.160Z,98845.69
2018-12-09T06:05:44.807Z,98850.44
2018-12-09T06:08:12.346Z,98851.75
2018-12-09T06:10:39.846Z,98847.47
2018-12-09T06:13:07.530Z,98867.90
2018-12-09T06:15:35.083Z,98863.09
2018-12-09T06:18:02.577Z,98866.98
2018-12-09T06:20:30.277Z,98870.69
2018-12-09T06:22:57.771Z,98882.57
2018-12-09T06:25:25.281Z,98883.92
2018-12-09T06:27:52.818Z,98887.18
2018-12-09T06:30:20.375Z,98889.06
2018-12-09T06:32:47.934Z,98886.61
2018-12-09T06:35:15.477Z,98886.27
2018-12-09T06:37:42.972Z,98885.02
2018-12-09T06:40:10.560Z,98890.84
2018-12-09T06:42:38.179Z,98876.22
2018-12-09T06:45:05.674Z,98873.53
2018-12-09T06:47:33.281Z,98874.20
2018-12-09T06:50:00.768Z,98879.96
2018-12-09T06:52:28.340Z,98890.63
2018-12-09T06:54:56.286Z,98901.80
2018-12-09T06:57:23.786Z,98906.88
2018-12-09T06:59:51.295Z,98912.69
2018-12-09T07:02:18.896Z,98921.06
2018-12-09T07:04:46.421Z,98939.23
2018-12-09T07:07:13.923Z,98933.66
2018-12-09T07:09:41.422Z,98942.30
2018-12-09T07:12:08.987Z,98949.22
2018-12-09T07:14:36.967Z,98949.13
2018-12-09T07:17:04.477Z,98958.64
2018-12-09T07:19:32.001Z,98960.41
2018-12-09T07:21:59.835Z,98967.91
2018-12-09T07:24:27.448Z,98972.63
2018-12-09T07:26:55.046Z,98976.25
2018-12-09T07:29:22.554Z,98985.67
2018-12-09T07:31:50.058Z,98985.55
2018-12-09T07:34:18.125Z,98990.46
2018-12-09T07:36:45.637Z,98990.19
2018-12-09T07:39:13.203Z,99001.47
2018-12-09T07:41:40.737Z,99003.68
2018-12-09T07:44:08.236Z,99009.55
2018-12-09T07:46:35.750Z,99019.98
2018-12-09T07:49:03.284Z,99020.22
2018-12-09T07:51:30.963Z,99028.05
2018-12-09T07:53:58.513Z,99034.22
2018-12-09T07:56:26.090Z,99038.58
2018-12-09T07:58:53.636Z,99046.33
2018-12-09T08:01:21.120Z,99061.38
2018-12-09T08:03:48.739Z,99063.53
2018-12-09T08:06:16.301Z,99066.82
2018-12-09T08:08:43.889Z,99073.38
2018-12-09T08:11:11.380Z,99077.65
2018-12-09T08:13:38.880Z,99079.36
2018-12-09T08:16:06.638Z,99085.43
2018-12-09T08:18:34.198Z,99097.70
2018-12-09T08:21:01.698Z,99103.92
2018-12-09T08:23:29.255Z,99108.80
2018-12-09T08:25:56.748Z,99104.08
2018-12-09T08:28:24.303Z,99117.27
2018-12-09T08:30:51.793Z,99119.55
2018-12-09T08:33:19.306Z,99130.35
2018-12-09T08:35:46.878Z,99130.92
2018-12-09T08:38:14.356Z,99130.83
2018-12-09T08:40:41.920Z,99145.31
2018-12-09T08:43:09.443Z,99141.04
2018-12-09T08:45:37.061Z,99147.77
2018-12-09T08:48:04.549Z,99149.59
2018-12-09T08:50:32.091Z,99150.89
2018-12-09T08:52:59.615Z,99146.84
2018-12-09T08:55:27.139Z,99149.54
2018-12-09T08:57:54.812Z,99157.20
2018-12-09T09:00:22.311Z,99157.86
2018-12-09T09:02:49.816Z,99164.51
2018-12-09T09:05:17.338Z,99167.98
2018-12-09T09:07:44.837Z,99164.12
2018-12-09T09:10:12.373Z,99162.35
2018-12-09T09:12:39.872Z,99166.45
2018-12-09T09:15:07.348Z,99170.23
2018-12-09T09:17:35.014Z,99171.48
2018-12-09T09:20:02.757Z,99175.55
2018-12-09T09:22:30.309Z,99187.50
2018-12-09T09:24:57.819Z,99187.31
2018-12-09T09:27:25.382Z,99193.78
2018-12-09T09:29:52.877Z,99197.41
2018-12-09T09:32:20.385Z,99208.58
2018-12-09T09:34:47.882Z,99208.36
2018-12-09T09:37:15.432Z,99211.20
2018-12-09T09:39:43.023Z,99206.64
2018-12-09T09:42:10.504Z,99216.28
2018-12-09T09:44:38.160Z,99220.91
2018-12-09T09:47:05.816Z,99221.10
2018-12-09T09:49:33.353Z,99222.83
2018-12-09T09:52:00.915Z,99226.88
2018-12-09T09:54:28.449Z,99232.91
2018-12-09T09:56:55.947Z,99232.23
2018-12-09T09:59:23.583Z,99233.25
2018-12-09T10:01:51.159Z,99244.72
2018-12-09T10:04:18.655Z,99246.55
2018-12-09T10:06:46.193Z,99255.23
2018-12-09T10:09:13.690Z,99251.89
2018-12-09T10:11:41.191Z,99261.11
2018-12-09T10:14:08.738Z,99265.55
2018-12-09T10:16:36.233Z,99265.78
2018-12-09T10:19:03.767Z,99268.97
2018-12-09T10:21:31.280Z,99274.72
2018-12-09T10:23:58.800Z,99276.98
2018-12-09T10:26:26.321Z,99283.55
2018-12-09T10:28:53.971Z,99295.59
2018-12-09T10:31:21.470Z,99297.66
2018-12-09T10:33:49.610Z,99297.66
2018-12-09T10:36:17.325Z,99304.50
2018-12-09T10:38:44.873Z,99300.99
2018-12-09T10:41:12.383Z,99297.95
2018-12-09T10:43:39.894Z,99310.64
2018-12-09T10:46:07.443Z,99304.81
2018-12-09T10:48:35.187Z,99314.50
2018-12-09T10:51:02.672Z,99317.91
2018-12-09T10:53:30.295Z,99318.21
2018-12-09T10:55:57.790Z,99327.66
2018-12-09T10:58:25.364Z,99325.10
2018-12-09T11:00:54.913Z,99323.52
2018-12-09T11:03:22.401Z,99333.68
2018-12-09T11:05:49.905Z,99337.41
2018-12-09T11:08:17.406Z,99345.55
2018-12-09T11:10:45.080Z,99351.20
2018-12-09T11:13:12.599Z,99344.01
2018-12-09T11:15:40.112Z,99346.95
2018-12-09T11:18:07.674Z,99356.30
2018-12-09T11:20:35.250Z,99356.20
2018-12-09T11:23:02.761Z,99362.05
2018-12-09T11:25:30.241Z,99370.84
2018-12-09T11:27:57.754Z,99367.30
2018-12-09T11:30:25.290Z,99366.53
2018-12-09T11:32:52.895Z,99366.67
2018-12-09T11:35:20.432Z,99367.11
2018-12-09T11:37:47.966Z,99378.36
2018-12-09T11:40:15.507Z,99385.59
2018-12-09T11:42:43.052Z,99380.19
2018-12-09T11:45:10.582Z,99381.00
2018-12-09T11:47:38.134Z,99397.26
2018-12-09T11:50:07.664Z,99395.37
2018-12-09T11:52:35.268Z,99403.95
2018-12-09T11:55:02.781Z,99401.21
2018-12-09T11:57:30.289Z,99402.91
2018-12-09T11:59:57.823Z,99414.20
2018-12-09T12:02:25.324Z,99414.33
2018-12-09T12:04:52.812Z,99415.88
2018-12-09T12:07:20.341Z,99424.43
2018-12-09T12:09:47.823Z,99426.09
2018-12-09T12:12:15.307Z,99431.48
2018-12-09T12:14:42.813Z,99437.44
2018-12-09T12:17:10.298Z,99449.83
2018-12-09T12:19:37.922Z,99455.14
2018-12-09T12:22:05.442Z,99452.97
2018-12-09T12:24:32.946Z,99459.08
2018-12-09T12:27:00.464Z,99469.72
2018-12-09T12:29:27.953Z,99469.36
2018-12-09T12:31:55.495Z,99477.17
2018-12-09T12:34:23.018Z,99479.72
2018-12-09T12:36:50.510Z,99488.16
2018-12-09T12:39:18.063Z,99492.72
2018-12-09T12:41:45.608Z,99493.38
2018-12-09T12:44:13.158Z,99503.94
2018-12-09T12:46:40.764Z,99502.91
2018-12-09T12:49:08.267Z,99509.98
2018-12-09T12:51:35.748Z,99517.28
2018-12-09T12:54:05.386Z,99522.05
2018-12-09T12:56:32.821Z,99532.68
2018-12-09T12:59:00.355Z,99530.52
2018-12-09T13:01:27.883Z,99533.55
2018-12-09T13:03:55.408Z,99538.86
2018-12-09T13:06:23.167Z,99543.98
2018-12-09T13:08:50.667Z,99546.44
2018-12-09T13:11:18.423Z,99553.73
2018-12-09T13:13:45.944Z,99560.81
2018-12-09T13:16:13.470Z,99567.73
2018-12-09T13:18:40.953Z,99570.91
2018-12-09T13:21:08.459Z,99579.95
2018-12-09T13:23:36.001Z,99585.19
2018-12-09T13:26:03.543Z,99597.43
2018-12-09T13:28:31.157Z,99598.23
2018-12-09T13:30:58.703Z,99602.78
2018-12-09T13:33:26.247Z,99600.41
2018-12-09T13:35:53.782Z,99613.13
2018-12-09T13:38:21.271Z,99614.61
2018-12-09T13:40:48.945Z,99632.80
2018-12-09T13:43:16.467Z,99636.47
2018-12-09T13:45:43.965Z,99629.08
2018-12-09T13:48:11.540Z,99647.27
2018-12-09T13:50:39.071Z,99647.41
2018-12-09T13:53:06.585Z,99643.14
2018-12-09T13:55:34.081Z,99648.67
2018-12-09T13:58:01.702Z,99654.23
2018-12-09T14:00:29.211Z,99668.76
2018-12-09T14:02:56.693Z,99679.80
2018-12-09T14:05:24.230Z,99685.52
2018-12-09T14:07:51.721Z,99688.68
2018-12-09T14:10:19.227Z,99700.05
2018-12-09T14:12:47.111Z,99714.33
2018-12-09T14:15:14.737Z,99717.59
2018-12-09T14:17:42.228Z,99717.52
2018-12-09T14:20:09.858Z,99724.27
2018-12-09T14:22:37.398Z,99723.16
2018-12-09T14:25:05.675Z,99735.44
2018-12-09T14:27:33.189Z,99726.65
2018-12-09T14:30:00.703Z,99740.77
2018-12-09T14:32:28.189Z,99746.81
2018-12-09T14:34:55.861Z,99756.19
2018-12-09T14:37:23.540Z,99763.64
2018-12-09T14:39:51.048Z,99772.14
2018-12-09T14:42:18.565Z,99778.32
2018-12-09T14:44:46.074Z,99780.56
2018-12-09T14:47:13.643Z,99794.06
2018-12-09T14:49:41.207Z,99799.21
2018-12-09T14:52:08.747Z,99811.04
2018-12-09T14:54:36.344Z,99813.11
2018-12-09T14:57:03.837Z,99815.78
2018-12-09T14:59:31.378Z,99823.41
2018-12-09T15:01:58.883Z,99826.19
2018-12-09T15:04:26.384Z,99833.58
2018-12-09T15:06:53.909Z,99848.63
2018-12-09T15:09:21.417Z,99860.14
2018-12-09T15:11:48.939Z,99859.18
2018-12-09T15:14:17.294Z,99864.25
2018-12-09T15:16:45.077Z,99870.50
2018-12-09T15:19:12.625Z,99886.55
2018-12-09T15:21:40.160Z,99892.58
2018-12-09T15:24:07.665Z,99899.89
2018-12-09T15:26:35.164Z,99903.23
2018-12-09T15:29:02.801Z,99910.29
2018-12-09T15:31:30.291Z,99921.61
2018-12-09T15:33:57.787Z,99925.98
2018-12-09T15:36:25.304Z,99923.84
2018-12-09T15:38:52.871Z,99916.92
2018-12-09T15:41:20.415Z,99935.02
2018-12-09T15:43:47.914Z,99936.81
2018-12-09T15:46:15.401Z,99950.36
2018-12-09T15:48:42.947Z,99958.52
2018-12-09T15:51:10.738Z,99968.20
2018-12-09T15:53:38.237Z,99975.08
2018-12-09T15:56:05.753Z,99977.52
2018-12-09T15:58:33.306Z,99984.01
2018-12-09T16:01:00.838Z,100010.98
2018-12-09T16:03:28.428Z,100017.92
2018-12-09T16:05:55.926Z,100005.37
2018-12-09T16:08:23.425Z,100018.78
2018-12-09T16:10:50.958Z,100020.30
2018-12-09T16:13:18.526Z,100020.47
2018-12-09T16:15:46.283Z,100037.07
2018-12-09T16:18:13.821Z,100040.70
2018-12-09T16:20:41.577Z,100045.83
2018-12-09T16:23:09.083Z,100045.47
2018-12-09T16:25:36.598Z,100065.53
2018-12-09T16:28:04.135Z,100065.27
2018-12-09T16:30:31.697Z,100067.49
2018-12-09T16:32:59.229Z,100077.23
2018-12-09T16:35:26.716Z,100083.97
2018-12-09T16:37:54.222Z,100092.38
2018-12-09T16:40:21.805Z,100112.59
2018-12-09T16:42:49.347Z,100102.94
2018-12-09T16:45:16.868Z,100116.25
2018-12-09T16:47:44.474Z,100122.06
2018-12-09T16:50:11.965Z,100122.68
2018-12-09T16:52:39.456Z,100141.44
2018-12-09T16:55:06.973Z,100144.88
2018-12-09T16:57:34.488Z,100149.98
2018-12-09T17:00:02.002Z,100156.42
2018-12-09T17:02:29.531Z,100167.68
2018-12-09T17:04:57.034Z,100170.07
2018-12-09T17:07:24.533Z,100186.09
2018-12-09T17:09:52.057Z,100191.53
2018-12-09T17:12:19.591Z,100190.11
2018-12-09T17:14:47.113Z,100197.20
2018-12-09T17:17:15.011Z,100206.16
2018-12-09T17:19:42.686Z,100207.37
2018-12-09T17:22:10.198Z,100215.55
2018-12-09T17:24:37.713Z,100220.94
2018-12-09T17:27:05.279Z,100213.41
2018-12-09T17:29:32.775Z,100228.41
2018-12-09T17:32:00.270Z,100228.77
2018-12-09T17:34:27.814Z,100249.02
2018-12-09T17:36:55.313Z,100267.17
2018-12-09T17:39:22.877Z,100270.62
2018-12-09T17:41:50.441Z,100280.05
2018-12-09T17:44:17.955Z,100290.55
2018-12-09T17:46:45.442Z,100299.51
2018-12-09T17:49:13.063Z,100297.56
2018-12-09T17:51:40.565Z,100306.20
2018-12-09T17:54:08.051Z,100311.14
2018-12-09T17:56:36.528Z,100313.62
2018-12-09T17:59:04.021Z,100330.05
2018-12-09T18:01:31.549Z,100338.24
2018-12-09T18:04:00.661Z,100331.59
2018-12-09T18:06:28.305Z,100332.19
2018-12-09T18:08:56.735Z,100341.98
2018-12-09T18:11:24.239Z,100345.24
2018-12-09T18:13:51.747Z,100345.84
2018-12-09T18:16:19.271Z,100346.92
2018-12-09T18:18:46.799Z,100347.07
2018-12-09T18:21:14.345Z,100342.08
2018-12-09T18:23:41.885Z,100353.94
2018-12-09T18:26:09.455Z,100353.28
2018-12-09T18:28:37.019Z,100364.84
2018-12-09T18:31:04.572Z,100378.85
2018-12-09T18:33:32.110Z,100378.03
2018-12-09T18:35:59.648Z,100382.59
2018-12-09T18:38:27.230Z,100397.72
2018-12-09T18:40:54.726Z,100423.53
2018-12-09T18:43:22.271Z,100444.22
2018-12-09T18:45:49.842Z,100449.36
2018-12-09T18:48:17.365Z,100438.86
2018-12-09T18:50:44.874Z,100445.33
2018-12-09T18:53:12.366Z,100446.17
2018-12-09T18:55:40.040Z,100447.55
2018-12-09T18:58:07.521Z,100465.59
2018-12-09T19:00:35.066Z,100462.12
2018-12-09T19:03:02.574Z,100461.85
2018-12-09T19:05:30.060Z,100475.02
2018-12-09T19:07:57.562Z,100484.73
2018-12-09T19:10:25.428Z,100493.09
2018-12-09T19:12:53.048Z,100489.35
2018-12-09T19:15:20.608Z,100496.37
2018-12-09T19:17:48.103Z,100493.09
2018-12-09T19:20:15.714Z,100498.77
2018-12-09T19:22:43.257Z,100510.14
2018-12-09T19:25:10.745Z,100512.55
2018-12-09T19:27:38.279Z,100516.60
2018-12-09T19:30:06.159Z,100534.09
2018-12-09T19:32:33.734Z,100546.23
2018-12-09T19:35:01.248Z,100540.56
2018-12-09T19:37:28.729Z,100541.91
2018-12-09T19:39:56.345Z,100546.27
2018-12-09T19:42:23.892Z,100549.20
2018-12-09T19:44:51.383Z,100553.22
2018-12-09T19:47:18.894Z,100556.13
2018-12-09T19:49:46.595Z,100556.13
2018-12-09T19:52:14.131Z,100571.22
2018-12-09T19:54:41.622Z,100548.39
2018-12-09T19:57:09.224Z,100555.69
2018-12-09T19:59:36.749Z,100573.19
2018-12-09T20:02:04.242Z,100571.40
2018-12-09T20:04:31.765Z,100586.73
2018-12-09T20:06:59.250Z,100594.28
2018-12-09T20:09:26.867Z,100606.41
2018-12-09T20:11:54.459Z,100607.77
2018-12-09T20:14:21.956Z,100615.88
2018-12-09T20:16:49.505Z,100618.86
2018-12-09T20:19:16.988Z,100624.50
2018-12-09T20:21:44.520Z,100617.26
2018-12-09T20:24:12.001Z,100623.17
2018-12-09T20:26:39.505Z,100625.85
2018-12-09T20:29:07.075Z,100628.45
2018-12-09T20:31:34.596Z,100636.50
2018-12-09T20:34:02.169Z,100627.13
2018-12-09T20:36:29.682Z,100634.10
2018-12-09T20:38:57.165Z,100636.30
2018-12-09T20:41:24.775Z,100646.50
2018-12-09T20:43:52.262Z,100652.67
2018-12-09T20:46:19.752Z,100650.81
2018-12-09T20:48:47.369Z,100666.35
2018-12-09T20:51:15.249Z,100664.75
2018-12-09T20:53:42.792Z,100663.93
2018-12-09T20:56:10.417Z,100660.20
2018-12-09T20:58:37.892Z,100664.45
2018-12-09T21:01:05.436Z,100663.41
2018-12-09T21:03:33.034Z,100675.81
2018-12-09T21:06:00.517Z,100678.51
2018-12-09T21:08:28.007Z,100681.22
2018-12-09T21:10:55.550Z,100690.42
2018-12-09T21:13:23.079Z,100695.81
2018-12-09T21:15:51.490Z,100706.86
2018-12-09T21:18:19.383Z,100710.61
2018-12-09T21:20:46.899Z,100724.84
2018-12-09T21:23:14.421Z,100752.02
2018-12-09T21:25:42.041Z,100752.02
2018-12-09T21:28:09.600Z,100763.56
2018-12-09T21:30:37.087Z,100744.77
2018-12-09T21:33:04.684Z,100755.28
2018-12-09T21:35:32.173Z,100749.11
2018-12-09T21:37:59.721Z,100763.39
2018-12-09T21:40:27.677Z,100768.76
2018-12-09T21:42:55.162Z,100769.83
2018-12-09T21:45:22.709Z,100769.04
2018-12-09T21:47:50.376Z,100770.91
2018-12-09T21:50:17.868Z,100778.20
2018-12-09T21:52:45.417Z,100779.54
2018-12-09T21:55:12.987Z,100778.77
2018-12-09T21:57:42.093Z,100776.61
2018-12-09T22:00:10.425Z,100772.60
2018-12-09T22:02:38.076Z,100784.16
2018-12-09T22:05:06.610Z,100784.99
2018-12-09T22:07:34.264Z,100793.34
2018-12-09T22:10:01.775Z,100798.16
2018-12-09T22:12:29.262Z,100796.83
2018-12-09T22:14:56.845Z,100801.69
2018-12-09T22:17:24.381Z,100807.34
2018-12-09T22:19:51.923Z,100802.22
2018-12-09T22:22:19.483Z,100806.53
2018-12-09T22:24:47.109Z,100808.43
2018-12-09T22:27:15.629Z,100816.48
2018-12-09T22:29:43.183Z,100818.11
2018-12-09T22:32:10.683Z,100813.28
2018-12-09T22:34:38.204Z,100824.27
2018-12-09T22:37:05.824Z,100825.38
2018-12-09T22:39:33.323Z,100829.65
2018-12-09T22:42:00.878Z,100828.85
2018-12-09T22:44:28.382Z,100830.98
2018-12-09T22:46:55.937Z,100841.45
2018-12-09T22:49:23.697Z,100832.88
2018-12-09T22:51:51.251Z,100845.48
2018-12-09T22:54:18.759Z,100848.45
2018-12-09T22:56:46.282Z,100851.69
2018-12-09T22:59:15.428Z,100860.27
2018-12-09T23:01:45.469Z,100863.50
2018-12-09T23:04:13.036Z,100868.88
2018-12-09T23:06:40.628Z,100876.66
2018-12-09T23:09:08.679Z,100876.39
2018-12-09T23:11:37.386Z,100881.52
2018-12-09T23:14:04.908Z,100886.34
2018-12-09T23:16:32.454Z,100890.09
2018-12-09T23:19:00.025Z,100892.78
2018-12-09T23:21:27.585Z,100905.94
2018-12-09T23:23:55.261Z,100921.81
2018-12-09T23:26:22.758Z,100936.59
2018-12-09T23:28:50.278Z,100928.25
2018-12-09T23:31:17.783Z,100940.07
2018-12-09T23:33:45.425Z,100937.39
2018-12-09T23:36:12.992Z,100943.83
2018-12-09T23:38:40.513Z,100956.20
2018-12-09T23:41:08.058Z,100950.83
2018-12-09T23:43:35.586Z,100936.31
2018-12-09T23:46:03.122Z,100934.98
2018-12-09T23:48:30.672Z,100952.97
2018-12-09T23:50:58.292Z,100980.93
2018-12-09T23:53:25.866Z,100967.50
2018-12-09T23:55:53.383Z,100965.05
2018-12-09T23:58:21.075Z,100959.43
